Alexandria, Minnesota
Current Conditions -  °F | °C
As of 8:20 AM on Sunday 21 Dec 2014 (Local Time) from KAXN Reporting Station
Haze Haze  
Wind Chill: 20°   Ceiling: 200
Heat Index: 30°   Visibility: 1.7mi
Dew Point: 29°   Wind: 14mph
Humidity: 96%   Direction: 170°S
Pressure: 29.79"   Gusts: NA
Location:  45.89°N, 95.37°W
Report Text: KAXN 211420Z AUTO 17012KT 1 3/4SM BR OVC002 M01/M02 A2979 RMK AO2 I1000 T10111017
Loading
Personal Weather Stations






























Interactive Weather Map New forecast layout! Learn more

10-Day Weather Forecast

Advertisements
Track Severe Weather on mobile